Accueil
METAR-TAF:

METAR-TAF

Aéroports :

Aéroport de Pérouse-Sant'Egidio

Pérouse, Italie

latitude: 43-05N, longitude: 012-30E, altitude: 208 m

Observation

Le bulletin a été fait il y a 45 minutes, à 21:50 UTC
Vent 7 kt de nord/nord-ouest
Température 8°C
Humidité 93%
Pression
Visibilité 10 km ou plus
Nuages fragmentés à une hauteur de 4000 ft
pluie faible

METAR: LIRZ 202150Z 33007KT 9999 -RA BKN040 08/07 Q100

Heure: 23:35 (22:35 UTC)

Prévision

Le bulletin a été fait il y a 5 heures et 35 minutes, à 17:00 UTC
Prévision valable du 20 à 18 UTC au 21 à 18 UTC
Vent 5 kt de direction variable
Visibilité 10 km ou plus
Nuages épars à une hauteur de 3000 ft
Temporairement
du 20 à 18 UTC au 20 à 20 UTC
Visibilité: 4000 m
averses de pluie

TAF: LIRZ 201700Z 2018/2118 VRB05KT 9999 SCT030 TEMPO 2018/2020 4000 SHRA

Observations et prévisions météorologiques de plus de 4000 aéroports (messages METAR et TAF).

Les stations disponibles sont représentées par des disques jaunes et rouges sur la carte.

Passer la souris dessus pour voir le nom de la station.

Cliquer dessus pour voir les observations et prévisions météorologiques.

Pour changer de carte: cliquez sur les boutons verts avec une croix noire pour zoomer, sur le bouton vert avec un tiret pour effectuer un zoom arrière, ou sur les flèches vertes pour les cartes adjacentes.


METAR-TAF: